Aurora, Oregon
Current Conditions -  °F | °C
As of 2:17 PM on Thursday 23 Oct 2014 (Local Time) from KUAO Reporting Station
Heavy Rain Heavy Rain  
Wind Chill: 53°   Ceiling: 3200
Heat Index: 53°   Visibility: 1.5mi
Dew Point: 49°   Wind: 6mph
Humidity: 86%   Direction: NA
Pressure: 29.94"   Gusts: NA
Location:  45.23°N, 122.76°W
Report Text: KUAO 232117Z AUTO VRB05KT 1 1/2SM +RA BR SCT017 BKN032 OVC042 12/09 A2994 RMK AO2 RAB08 P0014 T01170094
Loading
Personal Weather Stations






























Interactive Weather Map
Tropical Storm Tracking
New forecast layout! Learn more

10-Day Weather Forecast

Advertisements
Track Severe Weather on mobile